createdAt,value
2023-03-30T00:00:12.195Z,78.00
2023-03-30T00:01:02.800Z,88.84
2023-03-30T00:01:52.562Z,84.79
2023-03-30T00:02:42.819Z,85.40
2023-03-30T00:03:33.131Z,86.90
2023-03-30T00:04:23.302Z,81.48
2023-03-30T00:05:13.328Z,82.86
2023-03-30T00:06:03.109Z,75.69
2023-03-30T00:06:53.130Z,78.42
2023-03-30T00:07:43.205Z,87.11
2023-03-30T00:08:33.262Z,81.48
2023-03-30T00:09:23.360Z,86.47
2023-03-30T00:10:13.400Z,82.97
2023-03-30T00:11:03.773Z,79.59
2023-03-30T00:11:53.544Z,70.12
2023-03-30T00:12:43.782Z,78.37
2023-03-30T00:13:33.830Z,79.44
2023-03-30T00:14:23.903Z,74.21
2023-03-30T00:15:14.232Z,76.61
2023-03-30T00:16:04.331Z,71.03
2023-03-30T00:16:54.353Z,79.82
2023-03-30T00:17:44.685Z,76.93
2023-03-30T00:18:34.740Z,76.71
2023-03-30T00:19:24.798Z,76.93
2023-03-30T00:20:15.181Z,81.44
2023-03-30T00:21:05.635Z,75.26
2023-03-30T00:21:55.236Z,76.73
2023-03-30T00:22:45.310Z,75.05
2023-03-30T00:23:35.370Z,71.73
2023-03-30T00:24:25.466Z,72.43
2023-03-30T00:25:15.515Z,78.07
2023-03-30T00:26:05.591Z,79.28
2023-03-30T00:26:55.618Z,72.82
2023-03-30T00:27:45.683Z,72.68
2023-03-30T00:28:35.748Z,74.27
2023-03-30T00:29:26.033Z,72.84
2023-03-30T00:30:16.125Z,73.25
2023-03-30T00:31:06.489Z,77.37
2023-03-30T00:31:56.518Z,72.31
2023-03-30T00:32:46.567Z,72.94
2023-03-30T00:33:45.506Z,74.49
2023-03-30T00:34:27.637Z,73.63
2023-03-30T00:35:16.740Z,69.12
2023-03-30T00:36:06.861Z,67.85
2023-03-30T00:36:56.823Z,72.05
2023-03-30T00:37:46.884Z,69.86
2023-03-30T00:38:36.951Z,71.18
2023-03-30T00:39:27.057Z,72.85
2023-03-30T00:40:17.168Z,75.76
2023-03-30T00:41:07.483Z,79.02
2023-03-30T00:41:57.287Z,78.33
2023-03-30T00:42:47.617Z,75.08
2023-03-30T00:43:37.704Z,73.68
2023-03-30T00:44:27.722Z,69.20
2023-03-30T00:45:17.795Z,69.77
2023-03-30T00:46:07.921Z,65.19
2023-03-30T00:46:57.920Z,66.56
2023-03-30T00:47:48.014Z,70.11
2023-03-30T00:48:38.049Z,69.67
2023-03-30T00:49:28.115Z,71.75
2023-03-30T00:50:18.188Z,64.42
2023-03-30T00:51:08.259Z,65.91
2023-03-30T00:51:58.413Z,67.88
2023-03-30T00:52:48.474Z,68.35
2023-03-30T00:53:38.550Z,66.92
2023-03-30T00:54:28.876Z,64.80
2023-03-30T00:55:18.967Z,72.67
2023-03-30T00:56:09.028Z,68.81
2023-03-30T00:56:59.067Z,65.77
2023-03-30T00:57:49.103Z,59.46
2023-03-30T00:58:39.180Z,59.67
2023-03-30T00:59:29.237Z,52.03
2023-03-30T01:00:19.322Z,51.66
2023-03-30T01:01:09.421Z,51.66
2023-03-30T01:01:59.439Z,55.52
2023-03-30T01:02:49.471Z,58.53
2023-03-30T01:03:39.850Z,59.90
2023-03-30T01:04:29.812Z,53.33
2023-03-30T01:05:19.873Z,58.48
2023-03-30T01:06:09.956Z,55.93
2023-03-30T01:07:00.004Z,59.20
2023-03-30T01:07:50.060Z,59.91
2023-03-30T01:08:40.084Z,62.60
2023-03-30T01:09:30.137Z,63.68
2023-03-30T01:10:20.202Z,68.05
2023-03-30T01:11:10.307Z,70.04
2023-03-30T01:12:00.354Z,63.60
2023-03-30T01:12:50.629Z,67.13
2023-03-30T01:13:40.694Z,66.17
2023-03-30T01:14:30.753Z,63.15
2023-03-30T01:15:20.832Z,64.93
2023-03-30T01:16:10.972Z,67.18
2023-03-30T01:17:00.942Z,70.45
2023-03-30T01:17:51.037Z,69.94
2023-03-30T01:18:41.051Z,71.49
2023-03-30T01:19:31.116Z,72.83
2023-03-30T01:20:21.193Z,70.39
2023-03-30T01:21:11.274Z,74.32
2023-03-30T01:22:01.473Z,75.09
2023-03-30T01:22:51.533Z,69.05
2023-03-30T01:23:41.602Z,73.39
2023-03-30T01:24:31.882Z,70.10
2023-03-30T01:25:21.965Z,70.59
2023-03-30T01:26:12.040Z,69.54
2023-03-30T01:27:02.444Z,65.99
2023-03-30T01:27:52.384Z,70.27
2023-03-30T01:28:42.459Z,71.47
2023-03-30T01:29:32.772Z,64.97
2023-03-30T01:30:22.843Z,60.35
2023-03-30T01:31:12.942Z,66.21
2023-03-30T01:32:02.923Z,68.66
2023-03-30T01:32:53.067Z,64.94
2023-03-30T01:33:43.040Z,63.25
2023-03-30T01:34:33.091Z,64.94
2023-03-30T01:35:23.235Z,68.16
2023-03-30T01:36:13.236Z,67.24
2023-03-30T01:37:03.240Z,63.79
2023-03-30T01:37:53.303Z,65.21
2023-03-30T01:38:43.588Z,66.72
2023-03-30T01:39:33.651Z,62.56
2023-03-30T01:40:23.716Z,61.10
2023-03-30T01:41:14.085Z,65.17
2023-03-30T01:42:04.099Z,63.95
2023-03-30T01:42:54.131Z,57.36
2023-03-30T01:43:44.198Z,56.81
2023-03-30T01:44:34.274Z,56.16
2023-03-30T01:45:24.317Z,54.10
2023-03-30T01:46:14.422Z,54.88
2023-03-30T01:47:04.485Z,63.70
2023-03-30T01:47:54.533Z,49.89
2023-03-30T01:48:44.509Z,47.57
2023-03-30T01:49:34.551Z,45.20
2023-03-30T01:50:24.834Z,42.85
2023-03-30T01:51:14.906Z,36.88
2023-03-30T01:52:04.992Z,42.96
2023-03-30T01:52:55.247Z,46.54
2023-03-30T01:53:45.322Z,43.16
2023-03-30T01:54:35.341Z,31.44
2023-03-30T01:55:25.416Z,28.76
2023-03-30T01:56:15.507Z,26.34
2023-03-30T01:57:05.657Z,25.77
2023-03-30T01:57:55.626Z,29.40
2023-03-30T01:58:45.639Z,38.88
2023-03-30T01:59:35.698Z,36.58
2023-03-30T02:00:25.770Z,36.83
2023-03-30T02:01:15.851Z,29.81
2023-03-30T02:02:06.095Z,35.64
2023-03-30T02:02:56.280Z,30.21
2023-03-30T02:03:46.294Z,27.05
2023-03-30T02:04:36.268Z,25.00
2023-03-30T02:05:26.318Z,34.40
2023-03-30T02:06:16.400Z,30.08
2023-03-30T02:07:06.466Z,27.67
2023-03-30T02:07:56.537Z,31.78
2023-03-30T02:08:46.598Z,34.15
2023-03-30T02:09:36.664Z,40.44
2023-03-30T02:10:26.737Z,43.51
2023-03-30T02:11:16.910Z,42.94
2023-03-30T02:12:06.927Z,33.24
2023-03-30T02:12:56.988Z,38.28
2023-03-30T02:13:47.069Z,41.73
2023-03-30T02:14:37.108Z,39.23
2023-03-30T02:15:27.185Z,40.22
2023-03-30T02:16:17.305Z,45.06
2023-03-30T02:17:07.304Z,45.95
2023-03-30T02:17:57.402Z,40.20
2023-03-30T02:18:47.412Z,35.64
2023-03-30T02:19:37.472Z,34.87
2023-03-30T02:20:27.706Z,38.04
2023-03-30T02:21:17.787Z,36.55
2023-03-30T02:22:07.846Z,32.51
2023-03-30T02:22:58.127Z,40.51
2023-03-30T02:23:48.191Z,41.98
2023-03-30T02:24:38.230Z,37.60
2023-03-30T02:25:28.313Z,41.04
2023-03-30T02:26:18.351Z,44.48
2023-03-30T02:27:08.393Z,44.91
2023-03-30T02:27:58.410Z,49.72
2023-03-30T02:28:48.504Z,46.78
2023-03-30T02:29:38.559Z,46.45
2023-03-30T02:30:28.639Z,48.31
2023-03-30T02:31:18.721Z,52.80
2023-03-30T02:32:09.021Z,43.90
2023-03-30T02:32:59.071Z,42.46
2023-03-30T02:33:49.104Z,45.52
2023-03-30T02:34:39.419Z,47.39
2023-03-30T02:35:29.504Z,52.59
2023-03-30T02:36:19.637Z,53.92
2023-03-30T02:37:09.894Z,48.99
2023-03-30T02:37:59.934Z,54.32
2023-03-30T02:38:49.979Z,52.26
2023-03-30T02:39:40.302Z,60.32
2023-03-30T02:40:30.374Z,62.25
2023-03-30T02:41:20.462Z,63.46
2023-03-30T02:42:10.487Z,54.38
2023-03-30T02:43:00.559Z,61.78
2023-03-30T02:43:50.655Z,61.90
2023-03-30T02:44:40.649Z,57.91
2023-03-30T02:45:30.781Z,66.34
2023-03-30T02:46:20.853Z,66.13
2023-03-30T02:47:10.825Z,67.19
2023-03-30T02:48:00.859Z,69.40
2023-03-30T02:48:50.913Z,70.95
2023-03-30T02:49:40.981Z,68.15
2023-03-30T02:50:31.053Z,62.35
2023-03-30T02:51:21.134Z,66.50
2023-03-30T02:52:11.166Z,66.79
2023-03-30T02:53:01.266Z,64.59
2023-03-30T02:53:51.278Z,64.87
2023-03-30T02:54:41.340Z,66.32
2023-03-30T02:55:31.620Z,58.49
2023-03-30T02:56:21.697Z,52.82
2023-03-30T02:57:11.771Z,51.48
2023-03-30T02:58:02.056Z,56.15
2023-03-30T02:58:52.141Z,54.68
2023-03-30T02:59:42.194Z,60.90
2023-03-30T03:00:32.230Z,62.29
2023-03-30T03:01:22.379Z,63.51
2023-03-30T03:02:12.419Z,64.76
2023-03-30T03:03:02.584Z,61.53
2023-03-30T03:03:52.491Z,58.06
2023-03-30T03:04:42.551Z,50.37
2023-03-30T03:05:32.628Z,53.30
2023-03-30T03:06:22.687Z,52.20
2023-03-30T03:07:12.878Z,54.09
2023-03-30T03:08:02.949Z,53.33
2023-03-30T03:08:53.016Z,51.47
2023-03-30T03:09:43.333Z,57.01
2023-03-30T03:10:33.406Z,65.86
2023-03-30T03:11:23.488Z,63.42
2023-03-30T03:12:13.814Z,60.95
2023-03-30T03:13:03.855Z,58.28
2023-03-30T03:13:53.927Z,59.76
2023-03-30T03:14:44.220Z,67.55
2023-03-30T03:15:34.261Z,61.46
2023-03-30T03:16:24.364Z,53.15
2023-03-30T03:17:14.715Z,60.97
2023-03-30T03:18:04.749Z,66.43
2023-03-30T03:18:54.790Z,62.35
2023-03-30T03:19:45.060Z,61.97
2023-03-30T03:20:35.127Z,62.15
2023-03-30T03:21:25.215Z,69.72
2023-03-30T03:22:15.242Z,64.62
2023-03-30T03:23:05.302Z,67.51
2023-03-30T03:23:55.380Z,61.15
2023-03-30T03:24:45.425Z,66.73
2023-03-30T03:25:35.462Z,68.11
2023-03-30T03:26:25.501Z,63.06
2023-03-30T03:27:15.533Z,62.80
2023-03-30T03:28:05.606Z,60.91
2023-03-30T03:28:55.898Z,63.98
2023-03-30T03:29:45.966Z,62.87
2023-03-30T03:30:36.074Z,64.98
2023-03-30T03:31:26.376Z,62.69
2023-03-30T03:32:16.374Z,65.34
2023-03-30T03:33:06.500Z,63.73
2023-03-30T03:33:56.779Z,62.65
2023-03-30T03:34:46.815Z,57.17
2023-03-30T03:35:36.897Z,57.05
2023-03-30T03:36:27.214Z,59.62
2023-03-30T03:37:17.239Z,60.80
2023-03-30T03:38:07.307Z,61.08
2023-03-30T03:38:57.380Z,63.52
2023-03-30T03:39:47.406Z,61.41
2023-03-30T03:40:37.494Z,61.45
2023-03-30T03:41:27.533Z,59.16
2023-03-30T03:42:17.571Z,59.32
2023-03-30T03:43:07.629Z,56.62
2023-03-30T03:43:57.723Z,50.47
2023-03-30T03:44:47.711Z,60.69
2023-03-30T03:45:38.067Z,54.96
2023-03-30T03:46:28.160Z,62.03
2023-03-30T03:47:18.170Z,64.35
2023-03-30T03:48:08.533Z,57.32
2023-03-30T03:48:58.533Z,56.27
2023-03-30T03:49:48.568Z,65.17
2023-03-30T03:50:38.636Z,61.79
2023-03-30T03:51:28.710Z,62.81
2023-03-30T03:52:18.736Z,65.37
2023-03-30T03:53:08.794Z,57.95
2023-03-30T03:53:58.864Z,61.84
2023-03-30T03:54:48.925Z,60.45
2023-03-30T03:55:38.999Z,63.71
2023-03-30T03:56:29.071Z,60.65
2023-03-30T03:57:19.358Z,49.80
2023-03-30T03:58:09.364Z,45.10
2023-03-30T03:58:59.426Z,42.88
2023-03-30T03:59:49.747Z,44.35
2023-03-30T04:00:39.907Z,49.46
2023-03-30T04:01:29.917Z,46.30
2023-03-30T04:02:22.574Z,47.35
2023-03-30T04:03:10.167Z,47.45
2023-03-30T04:04:00.085Z,43.97
2023-03-30T04:04:50.182Z,47.41
2023-03-30T04:05:40.169Z,48.36
2023-03-30T04:06:30.255Z,50.52
2023-03-30T04:07:20.276Z,47.05
2023-03-30T04:08:10.350Z,40.11
2023-03-30T04:09:00.416Z,37.36
2023-03-30T04:09:50.449Z,36.41
2023-03-30T04:10:40.496Z,45.34
2023-03-30T04:11:30.530Z,47.99
2023-03-30T04:12:20.554Z,51.71
2023-03-30T04:13:10.619Z,58.69
2023-03-30T04:14:00.700Z,57.94
2023-03-30T04:14:50.763Z,49.83
2023-03-30T04:15:40.841Z,48.49
2023-03-30T04:16:30.942Z,46.94
2023-03-30T04:17:21.226Z,45.20
2023-03-30T04:18:11.269Z,45.75
2023-03-30T04:19:01.242Z,51.18
2023-03-30T04:19:51.309Z,51.44
2023-03-30T04:20:41.386Z,54.68
2023-03-30T04:21:31.427Z,58.99
2023-03-30T04:22:21.461Z,54.99
2023-03-30T04:23:11.496Z,53.60
2023-03-30T04:24:01.565Z,59.00
2023-03-30T04:24:51.622Z,58.10
2023-03-30T04:25:41.697Z,64.14
2023-03-30T04:26:32.039Z,65.09
2023-03-30T04:27:22.101Z,61.01
2023-03-30T04:28:12.172Z,55.84
2023-03-30T04:29:02.515Z,60.98
2023-03-30T04:29:52.566Z,51.82
2023-03-30T04:30:42.643Z,50.38
2023-03-30T04:31:33.010Z,49.28
2023-03-30T04:32:23.135Z,45.73
2023-03-30T04:33:13.079Z,47.56
2023-03-30T04:34:03.157Z,48.30
2023-03-30T04:34:53.194Z,48.49
2023-03-30T04:35:43.302Z,51.00
2023-03-30T04:36:33.319Z,49.10
2023-03-30T04:37:23.345Z,45.89
2023-03-30T04:38:13.390Z,43.77
2023-03-30T04:39:03.467Z,34.73
2023-03-30T04:39:53.526Z,33.60
2023-03-30T04:40:43.808Z,32.06
2023-03-30T04:41:33.926Z,36.35
2023-03-30T04:42:23.937Z,33.91
2023-03-30T04:43:14.270Z,39.06
2023-03-30T04:44:04.379Z,42.49
2023-03-30T04:44:54.379Z,41.20
2023-03-30T04:45:44.495Z,49.55
2023-03-30T04:46:34.512Z,45.20
2023-03-30T04:47:24.576Z,40.82
2023-03-30T04:48:14.624Z,44.81
2023-03-30T04:49:04.678Z,40.50
2023-03-30T04:49:54.746Z,49.73
2023-03-30T04:50:44.821Z,44.18
2023-03-30T04:51:34.906Z,45.50
2023-03-30T04:52:25.147Z,44.53
2023-03-30T04:53:15.249Z,37.23
2023-03-30T04:54:05.268Z,35.09
2023-03-30T04:54:55.579Z,40.61
2023-03-30T04:55:45.651Z,40.68
2023-03-30T04:56:35.705Z,30.73
2023-03-30T04:57:25.815Z,27.74
2023-03-30T04:58:15.778Z,30.27
2023-03-30T04:59:05.845Z,30.91
2023-03-30T04:59:55.918Z,36.36
2023-03-30T05:00:46.004Z,38.74
2023-03-30T05:01:36.098Z,45.55
2023-03-30T05:02:26.252Z,49.26
2023-03-30T05:03:16.322Z,48.19
2023-03-30T05:04:06.238Z,38.72
2023-03-30T05:04:56.272Z,28.64
2023-03-30T05:05:46.344Z,25.00
2023-03-30T05:06:36.417Z,24.40
2023-03-30T05:07:26.455Z,30.92
2023-03-30T05:08:16.482Z,47.24
2023-03-30T05:09:06.551Z,54.19
2023-03-30T05:09:56.618Z,53.13
2023-03-30T05:10:46.968Z,40.08
2023-03-30T05:11:37.037Z,35.43
2023-03-30T05:12:27.064Z,33.15
2023-03-30T05:13:17.098Z,29.97
2023-03-30T05:14:07.181Z,32.76
2023-03-30T05:14:57.246Z,31.20
2023-03-30T05:15:47.310Z,42.66
2023-03-30T05:16:37.471Z,49.66
2023-03-30T05:17:27.533Z,53.87
2023-03-30T05:18:17.490Z,49.29
2023-03-30T05:19:07.572Z,40.21
2023-03-30T05:19:57.833Z,44.21
2023-03-30T05:20:47.871Z,32.70
2023-03-30T05:21:37.957Z,44.56
2023-03-30T05:22:28.285Z,49.34
2023-03-30T05:23:18.350Z,53.14
2023-03-30T05:24:08.423Z,47.23
2023-03-30T05:24:58.748Z,45.32
2023-03-30T05:25:48.931Z,45.79
2023-03-30T05:26:38.983Z,40.51
2023-03-30T05:27:28.924Z,43.91
2023-03-30T05:28:18.980Z,37.88
2023-03-30T05:29:09.053Z,46.96
2023-03-30T05:29:59.115Z,49.16
2023-03-30T05:30:49.232Z,54.17
2023-03-30T05:31:39.290Z,50.99
2023-03-30T05:32:29.353Z,46.13
2023-03-30T05:33:19.337Z,36.72
2023-03-30T05:34:09.661Z,41.53
2023-03-30T05:34:59.722Z,44.83
2023-03-30T05:35:49.844Z,44.93
2023-03-30T05:36:39.836Z,41.98
2023-03-30T05:37:29.893Z,39.59
2023-03-30T05:38:19.970Z,39.93
2023-03-30T05:39:09.985Z,44.23
2023-03-30T05:40:00.057Z,41.69
2023-03-30T05:40:50.116Z,39.12
2023-03-30T05:41:40.198Z,42.24
2023-03-30T05:42:30.222Z,41.72
2023-03-30T05:43:20.508Z,40.96
2023-03-30T05:44:10.575Z,44.73
2023-03-30T05:45:00.649Z,44.61
2023-03-30T05:45:50.712Z,41.59
2023-03-30T05:46:40.905Z,47.94
2023-03-30T05:47:30.896Z,41.03
2023-03-30T05:48:20.881Z,35.85
2023-03-30T05:49:10.953Z,32.21
2023-03-30T05:50:01.021Z,34.13
2023-03-30T05:50:51.115Z,33.61
2023-03-30T05:51:41.177Z,27.38
2023-03-30T05:52:31.388Z,30.36
2023-03-30T05:53:21.438Z,32.95
2023-03-30T05:54:11.511Z,29.97
2023-03-30T05:55:01.834Z,28.82
2023-03-30T05:55:51.910Z,33.54
2023-03-30T05:56:42.002Z,32.54
2023-03-30T05:57:32.353Z,28.69
2023-03-30T05:58:22.310Z,27.70
2023-03-30T05:59:12.393Z,32.92
2023-03-30T06:00:02.444Z,35.74
2023-03-30T06:00:52.514Z,32.82
2023-03-30T06:01:42.584Z,33.97
2023-03-30T06:02:32.700Z,35.08
2023-03-30T06:03:22.750Z,32.63
2023-03-30T06:04:12.928Z,29.78
2023-03-30T06:05:02.844Z,25.00
2023-03-30T06:05:52.831Z,29.37
2023-03-30T06:06:43.161Z,31.81
2023-03-30T06:07:33.164Z,29.90
2023-03-30T06:08:23.201Z,30.47
2023-03-30T06:09:13.274Z,31.54
2023-03-30T06:10:03.316Z,32.15
2023-03-30T06:10:53.373Z,28.28
2023-03-30T06:11:43.461Z,29.88
2023-03-30T06:12:33.496Z,28.77
2023-03-30T06:13:23.519Z,26.35
2023-03-30T06:14:13.588Z,26.96
2023-03-30T06:15:03.654Z,34.62
2023-03-30T06:15:54.052Z,26.34
2023-03-30T06:16:44.062Z,31.24
2023-03-30T06:17:34.114Z,32.15
2023-03-30T06:18:24.164Z,27.54
2023-03-30T06:19:14.253Z,31.38
2023-03-30T06:20:04.248Z,27.63
2023-03-30T06:20:54.323Z,31.51
2023-03-30T06:21:44.367Z,31.06
2023-03-30T06:22:34.460Z,27.84
2023-03-30T06:23:24.461Z,34.27
2023-03-30T06:24:14.561Z,34.05
2023-03-30T06:25:04.593Z,37.65
2023-03-30T06:25:54.681Z,37.26
2023-03-30T06:26:44.688Z,45.56
2023-03-30T06:27:34.719Z,47.54
2023-03-30T06:28:24.794Z,47.36
2023-03-30T06:29:14.890Z,42.76
2023-03-30T06:30:04.934Z,30.32
2023-03-30T06:30:54.983Z,36.23
2023-03-30T06:31:45.360Z,37.37
2023-03-30T06:32:35.388Z,34.84
2023-03-30T06:33:25.594Z,33.40
2023-03-30T06:34:15.547Z,33.21
2023-03-30T06:35:05.538Z,30.27
2023-03-30T06:35:55.632Z,28.65
2023-03-30T06:36:46.167Z,28.15
2023-03-30T06:37:35.728Z,27.84
2023-03-30T06:38:25.991Z,28.13
2023-03-30T06:39:16.046Z,29.37
2023-03-30T06:40:06.085Z,36.02
2023-03-30T06:40:56.258Z,34.96
2023-03-30T06:41:46.203Z,31.89
2023-03-30T06:42:36.242Z,30.09
2023-03-30T06:43:26.292Z,32.47
2023-03-30T06:44:16.344Z,41.98
2023-03-30T06:45:06.415Z,44.32
2023-03-30T06:45:56.564Z,38.56
2023-03-30T06:46:46.553Z,36.69
2023-03-30T06:47:36.624Z,38.96
2023-03-30T06:48:26.784Z,35.12
2023-03-30T06:49:16.695Z,27.01
2023-03-30T06:50:06.757Z,29.43
2023-03-30T06:50:56.824Z,40.55
2023-03-30T06:51:46.904Z,47.76
2023-03-30T06:52:37.010Z,41.86
2023-03-30T06:53:26.975Z,48.81
2023-03-30T06:54:17.338Z,48.09
2023-03-30T06:55:07.361Z,43.62
2023-03-30T06:55:57.386Z,37.06
2023-03-30T06:56:47.496Z,35.46
2023-03-30T06:57:37.517Z,37.92
2023-03-30T06:58:27.566Z,32.91
2023-03-30T06:59:17.634Z,32.28
2023-03-30T07:00:07.677Z,36.22
2023-03-30T07:00:57.781Z,40.45
2023-03-30T07:01:47.897Z,42.93
2023-03-30T07:02:38.003Z,39.82
2023-03-30T07:03:27.919Z,33.39
2023-03-30T07:04:18.286Z,28.03
2023-03-30T07:05:08.042Z,28.64
2023-03-30T07:05:58.126Z,32.69
2023-03-30T07:06:48.167Z,33.56
2023-03-30T07:07:38.207Z,30.71
2023-03-30T07:08:28.272Z,30.24
2023-03-30T07:09:18.341Z,35.77
2023-03-30T07:10:08.613Z,52.34
2023-03-30T07:10:58.671Z,42.34
2023-03-30T07:11:48.714Z,40.44
2023-03-30T07:12:38.750Z,35.28
2023-03-30T07:13:28.816Z,35.58
2023-03-30T07:14:18.892Z,33.75
2023-03-30T07:15:08.945Z,38.97
2023-03-30T07:15:59.006Z,41.37
2023-03-30T07:16:49.095Z,44.02
2023-03-30T07:17:39.073Z,41.62
2023-03-30T07:18:29.098Z,38.70
2023-03-30T07:19:19.187Z,41.35
2023-03-30T07:20:09.239Z,42.20
2023-03-30T07:20:59.309Z,38.57
2023-03-30T07:21:49.393Z,38.19
2023-03-30T07:22:39.428Z,39.40
2023-03-30T07:23:29.493Z,33.92
2023-03-30T07:24:19.564Z,37.69
2023-03-30T07:25:09.601Z,30.25
2023-03-30T07:25:59.838Z,34.70
2023-03-30T07:26:49.845Z,45.20
2023-03-30T07:27:39.888Z,36.36
2023-03-30T07:28:29.913Z,33.64
2023-03-30T07:29:19.972Z,42.60
2023-03-30T07:30:20.771Z,42.92
2023-03-30T07:31:01.115Z,41.36
2023-03-30T07:31:50.116Z,39.56
2023-03-30T07:32:40.275Z,38.14
2023-03-30T07:33:30.274Z,38.76
2023-03-30T07:34:20.252Z,37.73
2023-03-30T07:35:10.333Z,44.46
2023-03-30T07:36:00.375Z,41.66
2023-03-30T07:36:50.715Z,36.71
2023-03-30T07:37:40.743Z,37.59
2023-03-30T07:38:30.774Z,31.53
2023-03-30T07:39:20.834Z,29.09
2023-03-30T07:40:10.968Z,29.10
2023-03-30T07:41:01.093Z,34.11
2023-03-30T07:41:51.044Z,36.97
2023-03-30T07:42:41.050Z,33.84
2023-03-30T07:43:31.101Z,36.28
2023-03-30T07:44:21.174Z,35.08
2023-03-30T07:45:12.521Z,33.79
2023-03-30T07:46:01.339Z,39.30
2023-03-30T07:46:51.436Z,39.91
2023-03-30T07:47:41.456Z,37.24
2023-03-30T07:48:31.528Z,31.44
2023-03-30T07:49:21.560Z,32.80
2023-03-30T07:50:11.884Z,35.37
2023-03-30T07:51:02.513Z,37.66
2023-03-30T07:51:52.033Z,32.33
2023-03-30T07:52:42.078Z,36.81
2023-03-30T07:53:32.154Z,29.88
2023-03-30T07:54:22.201Z,34.20
2023-03-30T07:55:12.264Z,35.26
2023-03-30T07:56:02.329Z,36.94
2023-03-30T07:56:52.495Z,42.41
2023-03-30T07:57:42.496Z,39.63
2023-03-30T07:58:32.562Z,37.30
2023-03-30T07:59:22.815Z,42.46
2023-03-30T08:00:12.891Z,46.21
2023-03-30T08:01:03.189Z,43.91
2023-03-30T08:01:53.014Z,43.98
2023-03-30T08:02:43.078Z,41.37
2023-03-30T08:03:33.178Z,38.70
2023-03-30T08:04:24.889Z,32.24
2023-03-30T08:05:13.308Z,34.48
2023-03-30T08:06:03.239Z,30.93
2023-03-30T08:06:53.323Z,30.03
2023-03-30T08:07:43.342Z,32.32
2023-03-30T08:08:33.463Z,26.43
2023-03-30T08:09:23.520Z,27.59
2023-03-30T08:10:13.605Z,29.79
2023-03-30T08:11:04.196Z,35.54
2023-03-30T08:11:54.016Z,39.44
2023-03-30T08:12:44.044Z,28.86
2023-03-30T08:13:34.097Z,31.34
2023-03-30T08:14:24.116Z,31.89
2023-03-30T08:15:14.145Z,31.99
2023-03-30T08:16:04.200Z,31.99
2023-03-30T08:16:54.283Z,28.89
2023-03-30T08:17:44.434Z,27.51
2023-03-30T08:18:34.395Z,27.62
2023-03-30T08:19:24.429Z,33.45
2023-03-30T08:20:14.506Z,35.67
2023-03-30T08:21:04.911Z,32.28
2023-03-30T08:21:54.614Z,31.88
2023-03-30T08:22:44.630Z,34.86
2023-03-30T08:23:34.710Z,30.97
2023-03-30T08:24:24.776Z,28.29
2023-03-30T08:25:14.861Z,29.83
2023-03-30T08:26:04.885Z,37.96
2023-03-30T08:26:55.105Z,29.95
2023-03-30T08:27:44.953Z,41.24
2023-03-30T08:28:35.023Z,40.57
2023-03-30T08:29:25.120Z,44.18
2023-03-30T08:30:15.166Z,36.72
2023-03-30T08:31:05.525Z,36.88
2023-03-30T08:31:55.409Z,36.35
2023-03-30T08:32:45.454Z,42.44
2023-03-30T08:33:35.470Z,37.77
2023-03-30T08:34:25.492Z,34.65
2023-03-30T08:35:15.577Z,33.15
2023-03-30T08:36:05.632Z,40.86
2023-03-30T08:36:55.704Z,41.84
2023-03-30T08:37:45.760Z,41.20
2023-03-30T08:38:35.853Z,38.94
2023-03-30T08:39:25.867Z,40.32
2023-03-30T08:40:17.898Z,44.20
2023-03-30T08:41:06.212Z,38.40
2023-03-30T08:41:56.008Z,39.76
2023-03-30T08:42:46.028Z,37.71
2023-03-30T08:43:36.106Z,39.73
2023-03-30T08:44:26.386Z,43.28
2023-03-30T08:45:16.487Z,42.25
2023-03-30T08:46:06.578Z,48.86
2023-03-30T08:46:56.887Z,52.66
2023-03-30T08:47:46.932Z,48.43
2023-03-30T08:48:36.946Z,45.07
2023-03-30T08:49:27.267Z,44.87
2023-03-30T08:50:17.336Z,46.44
2023-03-30T08:51:07.373Z,44.95
2023-03-30T08:51:57.730Z,50.66
2023-03-30T08:52:47.765Z,55.62
2023-03-30T08:53:37.822Z,53.73
2023-03-30T08:54:28.173Z,52.29
2023-03-30T08:55:18.235Z,48.15
2023-03-30T08:56:08.253Z,46.73
2023-03-30T08:56:58.379Z,46.17
2023-03-30T08:57:48.374Z,52.37
2023-03-30T08:58:38.448Z,54.01
2023-03-30T08:59:28.513Z,54.25
2023-03-30T09:00:18.620Z,46.04
2023-03-30T09:01:08.712Z,50.22
2023-03-30T09:01:58.753Z,57.62
2023-03-30T09:02:48.780Z,49.48
2023-03-30T09:03:39.020Z,50.16
2023-03-30T09:04:29.066Z,49.98
2023-03-30T09:05:19.182Z,62.86
2023-03-30T09:06:09.146Z,63.02
2023-03-30T09:06:59.231Z,63.16
2023-03-30T09:07:49.249Z,63.61
2023-03-30T09:08:39.327Z,62.93
2023-03-30T09:09:29.349Z,55.43
2023-03-30T09:10:19.415Z,56.98
2023-03-30T09:11:09.488Z,56.55
2023-03-30T09:11:59.572Z,57.11
2023-03-30T09:12:49.607Z,55.34
2023-03-30T09:13:39.672Z,53.77
2023-03-30T09:14:29.692Z,57.97
2023-03-30T09:15:19.763Z,52.27
2023-03-30T09:16:09.888Z,52.00
2023-03-30T09:16:59.987Z,52.57
2023-03-30T09:17:49.981Z,56.11
2023-03-30T09:18:40.006Z,52.59
2023-03-30T09:19:30.284Z,49.67
2023-03-30T09:20:20.400Z,52.02
2023-03-30T09:21:10.421Z,52.39
2023-03-30T09:22:00.509Z,54.06
2023-03-30T09:22:50.518Z,56.90
2023-03-30T09:23:40.596Z,53.78
2023-03-30T09:24:30.638Z,56.65
2023-03-30T09:25:20.657Z,55.65
2023-03-30T09:26:10.717Z,50.35
2023-03-30T09:27:00.811Z,49.30
2023-03-30T09:27:50.835Z,48.04
2023-03-30T09:28:40.905Z,52.32
2023-03-30T09:29:30.981Z,45.39
2023-03-30T09:30:21.052Z,39.93
2023-03-30T09:31:11.127Z,48.20
2023-03-30T09:32:01.236Z,45.72
2023-03-30T09:32:51.195Z,47.81
2023-03-30T09:33:41.232Z,51.13
2023-03-30T09:34:31.306Z,54.57
2023-03-30T09:35:21.632Z,52.21
2023-03-30T09:36:11.745Z,42.63
2023-03-30T09:37:01.724Z,36.78
2023-03-30T09:37:51.744Z,44.44
2023-03-30T09:38:41.848Z,42.41
2023-03-30T09:39:33.650Z,43.60
2023-03-30T09:40:21.913Z,39.63
2023-03-30T09:41:11.996Z,38.81
2023-03-30T09:42:02.080Z,40.07
2023-03-30T09:42:52.093Z,43.53
2023-03-30T09:43:42.176Z,49.93
2023-03-30T09:44:32.455Z,49.63
2023-03-30T09:45:22.543Z,55.46
2023-03-30T09:46:12.622Z,57.40
2023-03-30T09:47:02.683Z,61.48
2023-03-30T09:47:52.777Z,54.31
2023-03-30T09:48:42.786Z,52.97
2023-03-30T09:49:32.805Z,56.66
2023-03-30T09:50:22.891Z,57.49
2023-03-30T09:51:12.938Z,57.34
2023-03-30T09:52:03.047Z,52.76
2023-03-30T09:52:53.057Z,55.54
2023-03-30T09:53:43.132Z,57.02
2023-03-30T09:54:33.197Z,54.72
2023-03-30T09:55:23.284Z,57.71
2023-03-30T09:56:13.298Z,60.89
2023-03-30T09:57:03.420Z,68.54
2023-03-30T09:57:53.418Z,65.04
2023-03-30T09:58:43.496Z,62.42
2023-03-30T09:59:33.555Z,60.37
2023-03-30T10:00:23.889Z,58.23
2023-03-30T10:01:13.968Z,54.03
2023-03-30T10:02:04.033Z,58.42
2023-03-30T10:02:54.166Z,59.06
2023-03-30T10:03:44.275Z,63.36
2023-03-30T10:04:34.228Z,55.93
2023-03-30T10:05:24.232Z,52.83
2023-03-30T10:06:14.264Z,59.23
2023-03-30T10:07:18.022Z,57.75
2023-03-30T10:07:55.405Z,57.79
2023-03-30T10:08:44.501Z,56.98
2023-03-30T10:09:34.514Z,52.22
2023-03-30T10:10:24.572Z,53.62
2023-03-30T10:11:14.633Z,54.21
2023-03-30T10:12:04.719Z,52.24
2023-03-30T10:12:54.769Z,56.24
2023-03-30T10:13:44.943Z,55.35
2023-03-30T10:14:35.009Z,58.21
2023-03-30T10:15:25.088Z,51.38
2023-03-30T10:16:15.136Z,45.23
2023-03-30T10:17:05.171Z,48.27
2023-03-30T10:17:55.223Z,50.16
2023-03-30T10:18:45.301Z,52.44
2023-03-30T10:19:37.982Z,52.58
2023-03-30T10:20:25.416Z,52.21
2023-03-30T10:21:15.488Z,52.91
2023-03-30T10:22:05.569Z,53.80
2023-03-30T10:22:55.603Z,55.81
2023-03-30T10:23:45.665Z,59.01
2023-03-30T10:24:35.718Z,63.91
2023-03-30T10:25:25.801Z,65.77
2023-03-30T10:26:15.861Z,60.77
2023-03-30T10:27:05.951Z,64.97
2023-03-30T10:27:56.189Z,56.53
2023-03-30T10:28:46.278Z,62.16
2023-03-30T10:29:36.311Z,62.29
2023-03-30T10:30:26.631Z,64.05
2023-03-30T10:31:16.736Z,69.15
2023-03-30T10:32:06.779Z,64.82
2023-03-30T10:32:56.852Z,58.09
2023-03-30T10:33:46.841Z,60.61
2023-03-30T10:34:36.936Z,56.19
2023-03-30T10:35:26.961Z,56.68
2023-03-30T10:36:17.037Z,61.59
2023-03-30T10:37:07.060Z,63.38
2023-03-30T10:37:57.079Z,58.66
2023-03-30T10:38:47.160Z,55.65
2023-03-30T10:39:37.192Z,51.73
2023-03-30T10:40:27.334Z,41.45
2023-03-30T10:41:17.300Z,39.78
2023-03-30T10:42:07.406Z,33.35
2023-03-30T10:42:57.512Z,41.17
2023-03-30T10:43:47.478Z,36.39
2023-03-30T10:44:37.545Z,40.11